Time;durP1;ratioP1;P1;durP2;ratioP2;P2;SDS_P1;SDS_P2;PMS_P1;PMS_P2;Temp;Humidity;BMP_temperature;BMP_pressure;BME280_temperature;BME280_humidity;BME280_pressure;Samples;Min_cycle;Max_cycle;Signal;HPM_P1;HPM_P2
2022/11/19 00:01:46;;;;;;;0.00;0.00;;;;;;;4.10;100.00;99874.97;6200620;23;20091;-78
2022/11/19 00:04:12;;;;;;;0.00;0.00;;;;;;;4.15;100.00;99894.03;6223171;23;20008;-79
2022/11/19 00:06:40;;;;;;;0.00;0.00;;;;;;;4.11;100.00;99888.25;6196227;23;20010;-76
2022/11/19 00:15:40;;;;;;;0.00;0.00;;;;;;;3.98;100.00;99897.44;5957339;24;20053;-77
2022/11/19 00:18:09;;;;;;;0.00;0.00;;;;;;;3.94;100.00;99904.38;5958651;23;20029;-76
2022/11/19 00:20:34;;;;;;;0.00;0.00;;;;;;;3.95;100.00;99911.44;5986346;23;19999;-76
2022/11/19 00:23:00;;;;;;;0.00;0.00;;;;;;;3.97;100.00;99917.44;6060504;23;20035;-79
2022/11/19 00:25:29;;;;;;;0.10;0.10;;;;;;;4.00;100.00;99905.31;6214205;23;19999;-77
2022/11/19 00:27:56;;;;;;;0.10;0.10;;;;;;;4.06;100.00;99911.66;6223202;23;20054;-77
2022/11/19 00:30:22;;;;;;;0.00;0.00;;;;;;;4.22;100.00;99921.78;6196560;23;20031;-77
2022/11/19 00:32:47;;;;;;;0.00;0.00;;;;;;;4.24;100.00;99916.97;6195332;23;20001;-77
2022/11/19 00:35:13;;;;;;;0.00;0.00;;;;;;;4.39;100.00;99915.66;6196039;23;20005;-77
2022/11/19 00:37:38;;;;;;;0.00;0.00;;;;;;;4.56;100.00;99927.41;6195593;23;20004;-77
2022/11/19 00:40:07;;;;;;;0.00;0.00;;;;;;;4.62;100.00;99931.84;6195816;23;20036;-77
2022/11/19 00:42:33;;;;;;;0.00;0.00;;;;;;;4.82;100.00;99931.47;6220805;23;20028;-78
2022/11/19 00:44:59;;;;;;;0.00;0.00;;;;;;;5.00;100.00;99938.56;6195918;23;20009;-77
2022/11/19 00:47:27;;;;;;;0.00;0.00;;;;;;;5.07;100.00;99936.56;6196348;23;20066;-78
2022/11/19 00:49:57;;;;;;;0.00;0.00;;;;;;;5.18;100.00;99939.44;6194659;23;19992;-77
2022/11/19 00:52:45;;;;;;;0.00;0.00;;;;;;;5.29;100.00;99946.72;6166201;23;20003;-77
2022/11/19 00:55:14;;;;;;;0.00;0.00;;;;;;;5.25;100.00;99929.28;6196813;23;19996;-79
2022/11/19 00:57:43;;;;;;;0.00;0.00;;;;;;;5.36;100.00;99946.56;6195965;23;20629;-78
2022/11/19 01:00:09;;;;;;;0.00;0.00;;;;;;;5.32;100.00;99934.56;6222792;23;20001;-76
2022/11/19 01:02:40;;;;;;;0.10;0.10;;;;;;;5.41;100.00;99947.47;6183978;23;19992;-78
2022/11/19 01:05:08;;;;;;;0.00;0.00;;;;;;;5.48;100.00;99943.81;6196578;23;20001;-78
2022/11/19 01:07:33;;;;;;;0.00;0.00;;;;;;;5.51;100.00;99944.13;6193833;23;20414;-78
2022/11/19 01:09:59;;;;;;;0.00;0.00;;;;;;;5.53;100.00;99941.97;6187359;23;20000;-77
2022/11/19 01:12:24;;;;;;;0.00;0.00;;;;;;;5.49;100.00;99937.31;6190437;23;20015;-76
2022/11/19 01:14:50;;;;;;;0.00;0.00;;;;;;;5.53;100.00;99935.75;6195349;23;20060;-76
2022/11/19 01:17:18;;;;;;;0.00;0.00;;;;;;;5.56;100.00;99935.25;6221482;23;20009;-77
2022/11/19 01:19:43;;;;;;;0.10;0.10;;;;;;;5.55;100.00;99933.63;6195105;23;20052;-76
2022/11/19 01:22:08;;;;;;;0.00;0.00;;;;;;;5.63;100.00;99946.78;6172444;23;20016;-76
2022/11/19 01:24:39;;;;;;;0.00;0.00;;;;;;;5.60;100.00;99953.50;6194033;23;20027;-78
2022/11/19 01:27:04;;;;;;;0.00;0.00;;;;;;;5.61;100.00;99943.50;6196076;23;20000;-77
2022/11/19 01:29:30;;;;;;;0.00;0.00;;;;;;;5.62;100.00;99938.88;6223482;23;20096;-75
2022/11/19 01:31:55;;;;;;;0.00;0.00;;;;;;;5.74;100.00;99959.44;6166447;23;20092;-77
2022/11/19 01:34:21;;;;;;;0.00;0.00;;;;;;;5.74;100.00;99964.88;6211904;23;19997;-77
2022/11/19 01:37:03;;;;;;;0.03;0.03;;;;;;;5.74;100.00;99966.78;6170117;23;20329;-77
2022/11/19 01:39:31;;;;;;;0.00;0.00;;;;;;;5.65;100.00;99963.66;6224374;23;20004;-77
2022/11/19 01:42:48;;;;;;;0.10;0.10;;;;;;;5.52;100.00;99961.22;6221694;23;20055;-78
2022/11/19 01:45:03;;;;;;;;;;;;;;;5.54;100.00;99975.38;6212818;23;20012;-76
2022/11/19 01:47:28;;;;;;;0.00;0.00;;;;;;;5.42;100.00;99978.97;6175630;23;19904;-77
2022/11/19 01:49:56;;;;;;;0.00;0.00;;;;;;;5.35;100.00;99982.88;6190663;23;20004;-76
2022/11/19 01:52:24;;;;;;;0.00;0.00;;;;;;;5.19;100.00;99973.63;6194064;23;20033;-76
2022/11/19 01:54:53;;;;;;;0.00;0.00;;;;;;;5.07;100.00;99971.78;6192078;23;20079;-76
2022/11/19 01:57:19;;;;;;;0.00;0.00;;;;;;;5.00;100.00;99964.88;6192846;23;20104;-78
2022/11/19 01:59:49;;;;;;;0.00;0.00;;;;;;;4.94;100.00;99982.91;6194069;23;20440;-76
2022/11/19 02:02:18;;;;;;;0.00;0.00;;;;;;;4.78;100.00;99972.81;6189132;23;20008;-77
2022/11/19 02:04:45;;;;;;;0.00;0.00;;;;;;;4.62;100.00;99969.75;6193471;23;20008;-77
2022/11/19 02:07:27;;;;;;;0.00;0.00;;;;;;;4.54;100.00;99984.50;6194532;23;20035;-76
2022/11/19 02:10:06;;;;;;;0.00;0.00;;;;;;;4.45;100.00;99982.38;6192253;23;20317;-76
2022/11/19 02:13:10;;;;;;;0.00;0.00;;;;;;;4.42;100.00;99986.38;6222835;23;20000;-77
2022/11/19 02:15:35;;;;;;;0.00;0.00;;;;;;;4.39;100.00;99994.97;6223518;23;20062;-77
2022/11/19 02:18:19;;;;;;;0.00;0.00;;;;;;;4.34;100.00;99995.69;6203784;23;20017;-78
2022/11/19 02:20:54;;;;;;;0.00;0.00;;;;;;;4.36;100.00;100003.56;6219371;23;20008;-78
2022/11/19 02:23:59;;;;;;;0.00;0.00;;;;;;;4.33;100.00;99988.63;6220510;23;20104;-78
2022/11/19 02:26:58;;;;;;;0.13;0.13;;;;;;;4.39;100.00;100011.22;6197627;23;20047;-77
2022/11/19 02:29:29;;;;;;;0.00;0.00;;;;;;;4.36;100.00;100006.28;6219560;23;20009;-78
2022/11/19 02:32:08;;;;;;;0.00;0.00;;;;;;;4.37;100.00;100010.66;6211072;23;20001;-78
2022/11/19 02:34:46;;;;;;;0.00;0.00;;;;;;;4.29;100.00;100003.69;6196373;23;20003;-77
2022/11/19 02:37:48;;;;;;;0.10;0.10;;;;;;;4.23;100.00;99993.78;6196328;23;20007;-78
2022/11/19 02:40:25;;;;;;;0.00;0.00;;;;;;;4.25;100.00;100013.34;6195475;23;19997;-78
2022/11/19 02:43:02;;;;;;;0.00;0.00;;;;;;;4.18;100.00;100007.22;6209325;23;20009;-78
2022/11/19 02:45:48;;;;;;;0.10;0.10;;;;;;;4.09;100.00;100003.19;6197573;23;20431;-78
2022/11/19 02:48:31;;;;;;;0.00;0.00;;;;;;;3.98;100.00;100013.75;6223093;23;20024;-78
2022/11/19 02:51:03;;;;;;;0.00;0.00;;;;;;;3.92;100.00;100009.28;6194828;23;20031;-78
2022/11/19 02:53:32;;;;;;;0.00;0.00;;;;;;;3.81;100.00;100000.09;6223239;23;20005;-78
2022/11/19 02:56:16;;;;;;;0.10;0.10;;;;;;;3.78;100.00;100002.44;6223615;23;20001;-78
2022/11/19 03:04:28;;;;;;;0.08;0.08;;;;;;;3.65;100.00;100004.28;6223861;23;20015;-75
2022/11/19 03:07:00;;;;;;;0.00;0.00;;;;;;;3.57;100.00;99991.09;6223610;23;20273;-75
2022/11/19 03:12:48;;;;;;;0.00;0.00;;;;;;;3.57;100.00;99996.50;6173786;23;20297;-77
2022/11/19 03:18:13;;;;;;;0.00;0.00;;;;;;;3.52;100.00;99990.97;6222092;22;20027;-77
2022/11/19 03:20:43;;;;;;;0.10;0.10;;;;;;;3.43;100.00;99978.81;6195652;23;20043;-77
2022/11/19 03:23:27;;;;;;;0.00;0.00;;;;;;;3.54;100.00;100001.56;6196579;23;20039;-79
2022/11/19 03:26:12;;;;;;;0.00;0.00;;;;;;;3.41;100.00;99995.25;6195073;23;20004;-78
2022/11/19 03:28:46;;;;;;;0.00;0.00;;;;;;;3.28;100.00;99988.16;6192988;23;20128;-77
2022/11/19 03:31:14;;;;;;;0.00;0.00;;;;;;;3.34;100.00;100001.81;6195808;23;20450;-78
2022/11/19 03:33:46;;;;;;;0.00;0.00;;;;;;;3.35;100.00;100003.47;6192966;23;20001;-76
2022/11/19 03:36:25;;;;;;;0.00;0.00;;;;;;;3.39;100.00;100010.06;6194347;23;19996;-78
2022/11/19 03:39:02;;;;;;;0.00;0.00;;;;;;;3.42;100.00;100012.31;6209452;23;20015;-77
2022/11/19 03:41:31;;;;;;;0.00;0.00;;;;;;;3.40;100.00;100014.41;6195910;23;20011;-76
2022/11/19 03:44:16;;;;;;;;;;;;;;;;;;;;;
2022/11/19 03:46:45;;;;;;;0.00;0.00;;;;;;;3.45;100.00;100003.75;6221184;23;20032;-77
2022/11/19 03:49:16;;;;;;;0.00;0.00;;;;;;;3.52;100.00;99995.53;6194515;23;20036;-78
2022/11/19 03:51:58;;;;;;;0.00;0.00;;;;;;;3.65;100.00;100001.59;6188142;23;20007;-78
2022/11/19 03:54:29;;;;;;;0.00;0.00;;;;;;;3.84;100.00;100002.34;6191340;23;20001;-77
2022/11/19 03:56:57;;;;;;;0.80;0.80;;;;;;;3.96;100.00;100005.06;6190307;23;20019;-77
2022/11/19 03:59:30;;;;;;;0.00;0.00;;;;;;;4.16;100.00;100009.31;6193979;23;20068;-77
2022/11/19 04:02:00;;;;;;;0.50;0.50;;;;;;;4.37;100.00;100019.59;6209134;23;20012;-77
2022/11/19 04:04:45;;;;;;;;;;;;;;;;;;;;;
2022/11/19 04:07:19;;;;;;;0.00;0.00;;;;;;;4.58;100.00;100006.50;6219189;23;20016;-76
2022/11/19 04:09:44;;;;;;;0.10;0.10;;;;;;;4.72;100.00;100013.31;6195185;23;20000;-76
2022/11/19 04:12:22;;;;;;;0.00;0.00;;;;;;;4.71;100.00;100006.25;6187924;23;20025;-76
2022/11/19 04:14:48;;;;;;;0.00;0.00;;;;;;;4.75;100.00;99998.50;6177334;23;19997;-77
2022/11/19 04:17:17;;;;;;;0.00;0.00;;;;;;;4.72;100.00;100004.38;6186357;23;20008;-77
2022/11/19 04:19:43;;;;;;;0.00;0.00;;;;;;;4.56;100.00;100003.22;6163037;23;20055;-78
2022/11/19 04:22:09;;;;;;;0.00;0.00;;;;;;;4.48;100.00;100022.53;6189515;23;20009;-77
2022/11/19 04:24:35;;;;;;;0.10;0.10;;;;;;;4.27;100.00;100016.63;6162775;23;20016;-78
2022/11/19 04:27:03;;;;;;;0.10;0.10;;;;;;;4.20;100.00;100021.34;6161032;23;20008;-78
2022/11/19 04:29:37;;;;;;;0.00;0.00;;;;;;;4.08;100.00;100021.31;6164967;23;20383;-77
2022/11/19 04:32:15;;;;;;;0.00;0.00;;;;;;;4.03;100.00;100021.22;6164429;23;20008;-77
2022/11/19 04:34:48;;;;;;;0.00;0.00;;;;;;;4.00;100.00;100019.78;6189142;23;20023;-78
2022/11/19 04:37:14;;;;;;;0.00;0.00;;;;;;;3.83;100.00;100016.09;6149404;23;20004;-77
2022/11/19 04:39:39;;;;;;;0.00;0.00;;;;;;;3.69;100.00;100031.69;6188113;23;20096;-77
2022/11/19 04:42:07;;;;;;;0.00;0.00;;;;;;;3.58;100.00;100048.72;6164563;23;20091;-77
2022/11/19 04:44:37;;;;;;;0.00;0.00;;;;;;;3.28;100.00;100031.41;6163489;23;20065;-77
2022/11/19 04:47:10;;;;;;;0.08;0.08;;;;;;;3.11;100.00;100030.38;6191187;23;20380;-77
2022/11/19 04:49:38;;;;;;;0.90;0.80;;;;;;;3.21;100.00;100062.25;6163030;23;20017;-78
2022/11/19 04:52:04;;;;;;;0.00;0.00;;;;;;;3.00;100.00;100050.88;6164799;23;20785;-77
2022/11/19 04:54:39;;;;;;;;;;;;;;;;;;;;;
2022/11/19 04:57:05;;;;;;;0.00;0.00;;;;;;;3.17;100.00;100077.28;6191337;23;20036;-77
2022/11/19 04:59:38;;;;;;;0.00;0.00;;;;;;;3.01;100.00;100046.28;6164382;23;20005;-77
2022/11/19 05:02:06;;;;;;;0.00;0.00;;;;;;;3.14;100.00;100073.16;6164809;23;20063;-77
2022/11/19 05:04:32;;;;;;;0.00;0.00;;;;;;;3.10;100.00;100069.25;6164091;23;20040;-77
2022/11/19 05:07:09;;;;;;;0.00;0.00;;;;;;;2.94;100.00;100051.78;6165165;23;20005;-76
2022/11/19 05:09:34;;;;;;;0.00;0.00;;;;;;;2.87;100.00;100054.53;6141763;23;20005;-77
2022/11/19 05:12:00;;;;;;;0.10;0.10;;;;;;;2.94;100.00;100074.19;6139684;23;20028;-76
2022/11/19 05:14:25;;;;;;;0.00;0.00;;;;;;;2.92;100.00;100065.50;6187392;23;20451;-76
2022/11/19 05:16:51;;;;;;;0.00;0.00;;;;;;;2.94;100.00;100067.97;6139054;23;20446;-76
2022/11/19 05:19:29;;;;;;;;;;;;;;;;;;;;;
2022/11/19 05:21:57;;;;;;;0.00;0.00;;;;;;;2.76;100.00;100060.66;6189161;23;20455;-77
2022/11/19 05:24:30;;;;;;;0.00;0.00;;;;;;;2.71;100.00;100064.03;6138614;23;20023;-76
2022/11/19 05:26:55;;;;;;;0.00;0.00;;;;;;;2.72;100.00;100081.09;6163966;23;20077;-77
2022/11/19 05:29:21;;;;;;;0.00;0.00;;;;;;;2.58;100.00;100064.19;6163577;23;20028;-76
2022/11/19 05:31:49;;;;;;;0.00;0.00;;;;;;;2.56;100.00;100067.09;6163461;23;20005;-77
2022/11/19 05:34:17;;;;;;;13.10;12.07;;;;;;;2.44;100.00;100047.28;6190201;23;20008;-78
2022/11/19 05:36:48;;;;;;;0.00;0.00;;;;;;;2.52;100.00;100078.56;6166544;23;20019;-79
2022/11/19 05:43:07;;;;;;;0.00;0.00;;;;;;;2.39;100.00;100076.81;6062127;23;20014;-80
2022/11/19 05:45:38;;;;;;;0.08;0.08;;;;;;;2.29;100.00;100081.88;6060885;23;20018;-80
2022/11/19 05:48:21;;;;;;;0.00;0.00;;;;;;;2.20;100.00;100084.81;6166772;23;19997;-77
2022/11/19 05:50:49;;;;;;;0.00;0.00;;;;;;;2.13;100.00;100085.94;6145282;23;20008;-80
2022/11/19 05:53:21;;;;;;;0.00;0.00;;;;;;;2.11;100.00;100091.53;6194778;23;20005;-79
2022/11/19 05:56:09;;;;;;;0.00;0.00;;;;;;;2.01;100.00;100077.72;6167636;23;20081;-79
2022/11/19 05:58:35;;;;;;;0.00;0.00;;;;;;;2.18;100.00;100097.72;6192640;23;20119;-79
2022/11/19 06:01:01;;;;;;;0.00;0.00;;;;;;;2.10;100.00;100073.69;6141165;23;20009;-79
2022/11/19 06:03:40;;;;;;;;;;;;;;;;;;;;;
2022/11/19 06:06:26;;;;;;;0.03;0.03;;;;;;;2.23;100.00;100084.41;6194142;23;20021;-79
2022/11/19 06:08:51;;;;;;;0.00;0.00;;;;;;;2.27;100.00;100092.88;6167343;23;20001;-80
2022/11/19 06:14:04;;;;;;;3.63;3.30;;;;;;;2.35;100.00;100106.13;6171490;23;20054;-77
2022/11/19 06:16:30;;;;;;;0.00;0.00;;;;;;;2.31;100.00;100106.75;6192809;23;20196;-76
2022/11/19 06:18:55;;;;;;;0.00;0.00;;;;;;;2.34;100.00;100119.81;6162947;23;20027;-77
2022/11/19 06:21:20;;;;;;;0.00;0.00;;;;;;;2.20;100.00;100106.41;6196776;23;19996;-77
2022/11/19 06:23:46;;;;;;;0.00;0.00;;;;;;;2.13;100.00;100094.84;6196549;23;20007;-78
2022/11/19 06:26:21;;;;;;;0.10;0.10;;;;;;;2.08;100.00;100097.38;6172055;23;20059;-77
2022/11/19 06:28:46;;;;;;;0.00;0.00;;;;;;;2.06;100.00;100097.59;6200279;23;20008;-79
2022/11/19 06:31:14;;;;;;;0.20;0.20;;;;;;;2.02;100.00;100106.34;6173465;23;20316;-79
2022/11/19 06:33:40;;;;;;;0.10;0.10;;;;;;;1.98;100.00;100107.81;6196943;23;20020;-79
2022/11/19 06:36:11;;;;;;;0.00;0.00;;;;;;;1.96;100.00;100115.28;6220853;23;19996;-78
2022/11/19 06:38:39;;;;;;;0.00;0.00;;;;;;;1.95;100.00;100119.03;6191499;23;20012;-78
2022/11/19 06:41:07;;;;;;;0.00;0.00;;;;;;;1.92;100.00;100123.00;6220104;23;20007;-78
2022/11/19 06:43:34;;;;;;;0.00;0.00;;;;;;;1.82;100.00;100107.28;6170963;23;20012;-78
2022/11/19 06:46:08;;;;;;;0.00;0.00;;;;;;;1.84;100.00;100117.84;6224131;23;19995;-80
2022/11/19 06:48:33;;;;;;;0.00;0.00;;;;;;;1.77;100.00;100112.50;6225979;23;20015;-79
2022/11/19 06:51:00;;;;;;;0.10;0.10;;;;;;;1.74;100.00;100102.16;6172533;23;20083;-80
2022/11/19 06:53:48;;;;;;;0.00;0.00;;;;;;;1.75;100.00;100103.78;6173375;23;20027;-79
2022/11/19 06:56:26;;;;;;;;;;;;;;;;;;;;;
2022/11/19 06:59:07;;;;;;;0.00;0.00;;;;;;;1.91;100.00;100108.69;6224606;22;20037;-79
2022/11/19 07:01:32;;;;;;;0.00;0.00;;;;;;;1.94;100.00;100106.59;6197404;22;20046;-77
2022/11/19 07:04:00;;;;;;;0.10;0.10;;;;;;;2.06;100.00;100118.38;6173546;23;20024;-79
2022/11/19 07:06:40;;;;;;;;;;;;;;;;;;;;;
2022/11/19 07:09:08;;;;;;;0.10;0.10;;;;;;;2.39;100.00;100117.28;6177237;22;20035;-78
2022/11/19 07:11:57;;;;;;;0.00;0.00;;;;;;;2.71;100.00;100114.53;6196554;23;20009;-78
2022/11/19 07:14:23;;;;;;;0.00;0.00;;;;;;;2.99;100.00;100107.81;6193106;23;20431;-79
2022/11/19 07:16:56;;;;;;;0.00;0.00;;;;;;;3.28;100.00;100127.88;6196749;23;19988;-77
2022/11/19 07:19:39;;;;;;;0.00;0.00;;;;;;;3.24;100.00;100094.25;6197452;23;20012;-79
2022/11/19 07:22:36;;;;;;;;;;;;;;;;;;;;;
2022/11/19 07:25:23;;;;;;;0.10;0.10;;;;;;;3.25;100.00;100102.13;6101359;23;20298;-80
2022/11/19 07:28:30;;;;;;;0.10;0.10;;;;;;;3.10;100.00;100107.91;6222930;23;20294;-79
2022/11/19 07:31:04;;;;;;;;;;;;;;;;;;;;;
2022/11/19 07:33:39;;;;;;;0.00;0.00;;;;;;;2.88;100.00;100137.22;6222034;22;20012;-80
2022/11/19 07:36:27;;;;;;;;;;;;;;;;;;;;;
2022/11/19 07:38:53;;;;;;;0.00;0.00;;;;;;;2.54;100.00;100150.19;6198099;23;20040;-78
2022/11/19 07:44:10;;;;;;;0.00;0.00;;;;;;;2.21;100.00;100150.44;6199851;23;20073;-76
2022/11/19 07:46:39;;;;;;;0.00;0.00;;;;;;;2.22;100.00;100163.69;6195374;23;20016;-76
2022/11/19 07:49:07;;;;;;;0.10;0.10;;;;;;;2.20;100.00;100165.75;6196277;23;20008;-84
2022/11/19 07:51:37;;;;;;;0.00;0.00;;;;;;;2.06;100.00;100148.84;6172724;23;20024;-82
2022/11/19 07:54:08;;;;;;;0.00;0.00;;;;;;;2.09;100.00;100148.41;6202755;23;19996;-82
2022/11/19 07:56:34;;;;;;;0.00;0.00;;;;;;;2.00;100.00;100135.38;6176787;23;20039;-83
2022/11/19 07:59:02;;;;;;;0.00;0.00;;;;;;;2.04;100.00;100155.50;6198220;23;20012;-76
2022/11/19 08:01:48;;;;;;;0.00;0.00;;;;;;;2.03;100.00;100162.78;6199103;23;19993;-84
2022/11/19 08:04:16;;;;;;;0.00;0.00;;;;;;;2.03;100.00;100165.47;6196211;23;20062;-78
2022/11/19 08:06:51;;;;;;;0.08;0.08;;;;;;;2.01;100.00;100166.72;6194986;23;20091;-75
2022/11/19 08:09:19;;;;;;;0.00;0.00;;;;;;;2.05;100.00;100167.94;6218959;23;20092;-78
2022/11/19 08:11:52;;;;;;;0.00;0.00;;;;;;;2.10;100.00;100165.41;6195372;23;19989;-78
2022/11/19 08:14:17;;;;;;;0.00;0.00;;;;;;;2.13;100.00;100162.28;6195357;23;20012;-77
2022/11/19 08:19:29;;;;;;;0.00;0.00;;;;;;;2.26;100.00;100158.69;6224439;22;20131;-82
2022/11/19 08:21:54;;;;;;;0.00;0.00;;;;;;;2.32;100.00;100168.59;6146438;23;20012;-83
2022/11/19 08:24:28;;;;;;;0.00;0.00;;;;;;;2.38;100.00;100166.91;6167640;23;20076;-79
2022/11/19 08:26:53;;;;;;;0.00;0.00;;;;;;;2.48;100.00;100183.44;6167500;23;20012;-82
2022/11/19 08:29:31;;;;;;;0.00;0.00;;;;;;;2.49;100.00;100177.00;6199446;23;20028;-82
2022/11/19 08:31:59;;;;;;;0.00;0.00;;;;;;;2.58;100.00;100183.78;6215740;23;20076;-76
2022/11/19 08:34:33;;;;;;;0.17;0.17;;;;;;;2.74;100.00;100192.41;6190917;23;20015;-76
2022/11/19 08:37:00;;;;;;;0.10;0.10;;;;;;;2.82;100.00;100194.84;6190872;23;20135;-76
2022/11/19 08:39:29;;;;;;;0.00;0.00;;;;;;;2.96;100.00;100200.94;6194825;23;20445;-75
2022/11/19 08:45:25;;;;;;;0.00;0.00;;;;;;;3.13;100.00;100183.09;6218508;23;20032;-76
2022/11/19 08:47:50;;;;;;;0.10;0.10;;;;;;;3.33;100.00;100195.63;6218377;23;20015;-75
2022/11/19 08:50:16;;;;;;;0.05;0.05;;;;;;;3.49;100.00;100207.72;6144313;23;19993;-76
2022/11/19 08:52:43;;;;;;;0.00;0.00;;;;;;;3.57;100.00;100202.00;6168136;23;20009;-76
2022/11/19 08:55:09;;;;;;;0.00;0.00;;;;;;;3.74;100.00;100195.97;6194523;23;20309;-76
2022/11/19 08:57:34;;;;;;;0.00;0.00;;;;;;;3.99;100.00;100215.66;6169544;23;20001;-77
2022/11/19 09:00:03;;;;;;;0.00;0.00;;;;;;;4.79;100.00;100218.25;6222832;23;20019;-79
2022/11/19 09:02:42;;;;;;;;;;;;;;;;;;;;;
2022/11/19 09:05:08;;;;;;;0.00;0.00;;;;;;;10.41;100.00;100224.94;6226001;23;20028;-78
2022/11/19 09:07:34;;;;;;;0.00;0.00;;;;;;;12.13;100.00;100219.84;6222398;23;20000;-78
2022/11/19 09:09:59;;;;;;;0.00;0.00;;;;;;;13.14;100.00;100207.63;6219812;23;20041;-78
2022/11/19 09:12:31;;;;;;;0.00;0.00;;;;;;;14.31;100.00;100226.69;6194078;23;20010;-79
2022/11/19 09:15:07;;;;;;;0.00;0.00;;;;;;;15.39;100.00;100221.44;6195477;23;20045;-78
2022/11/19 09:17:34;;;;;;;0.00;0.00;;;;;;;16.19;100.00;100227.63;6196713;23;20019;-76
2022/11/19 09:19:59;;;;;;;0.00;0.00;;;;;;;16.82;100.00;100228.69;6196319;23;20016;-77
2022/11/19 09:22:27;;;;;;;0.00;0.00;;;;;;;17.17;100.00;100220.69;6172199;23;20411;-78
2022/11/19 09:24:56;;;;;;;0.00;0.00;;;;;;;18.10;100.00;100237.56;6170806;23;20056;-77
2022/11/19 09:27:50;;;;;;;0.00;0.00;;;;;;;18.86;100.00;100228.06;6223477;23;20047;-77
2022/11/19 09:30:24;;;;;;;0.00;0.00;;;;;;;19.51;96.21;100253.06;6221227;23;20019;-78
2022/11/19 09:33:06;;;;;;;0.00;0.00;;;;;;;19.75;93.88;100240.59;6195974;23;20004;-77
2022/11/19 09:36:51;;;;;;;0.00;0.00;;;;;;;20.68;92.45;100261.00;6195400;23;19997;-76
2022/11/19 09:39:18;;;;;;;0.05;0.05;;;;;;;21.71;90.02;100237.31;6190076;23;20008;-77
2022/11/19 09:42:23;;;;;;;0.00;0.00;;;;;;;22.54;89.36;100250.28;6197818;23;20005;-77
2022/11/19 09:45:02;;;;;;;0.00;0.00;;;;;;;23.11;89.50;100240.00;6196375;23;20009;-77
2022/11/19 09:48:00;;;;;;;0.00;0.00;;;;;;;24.36;84.93;100253.56;6193828;23;20015;-77
2022/11/19 09:51:15;;;;;;;0.10;0.10;;;;;;;24.75;86.00;100252.88;6193143;23;20005;-77
2022/11/19 09:54:03;;;;;;;;;;;;;;;;;;;;;
2022/11/19 09:56:49;;;;;;;0.45;0.43;;;;;;;25.84;83.43;100262.13;6221708;23;20023;-76
2022/11/19 09:59:39;;;;;;;0.00;0.00;;;;;;;26.57;78.58;100264.09;6222007;23;20000;-76
2022/11/19 10:02:21;;;;;;;0.00;0.00;;;;;;;26.77;79.52;100267.59;6221166;23;20005;-76
2022/11/19 10:05:02;;;;;;;;;;;;;;;;;;;;;
2022/11/19 10:07:51;;;;;;;2.38;0.93;;;;;;;27.13;80.31;100270.81;6196777;23;20604;-75
2022/11/19 10:10:16;;;;;;;0.00;0.00;;;;;;;27.44;78.12;100271.63;6195202;23;20039;-75
2022/11/19 10:13:43;;;;;;;0.00;0.00;;;;;;;27.73;79.56;100266.25;6194600;23;19992;-75
2022/11/19 10:16:19;;;;;;;0.32;0.32;;;;;;;28.55;80.38;100285.78;6124576;23;20006;-76
2022/11/19 10:19:20;;;;;;;0.00;0.00;;;;;;;30.21;77.09;100291.94;6219303;23;20012;-75
2022/11/19 10:22:18;;;;;;;;;;;;;;;;;;;;;
2022/11/19 10:24:57;;;;;;;0.00;0.00;;;;;;;31.75;71.31;100276.44;6220388;23;20036;-75
2022/11/19 10:27:34;;;;;;;0.00;0.00;;;;;;;31.36;70.77;100285.97;6194586;23;20011;-74
2022/11/19 10:30:08;;;;;;;0.00;0.00;;;;;;;30.47;75.63;100279.44;6218639;23;20363;-76
2022/11/19 10:32:46;;;;;;;0.00;0.00;;;;;;;30.75;76.14;100286.19;6194448;23;20092;-75
2022/11/19 10:35:20;;;;;;;0.00;0.00;;;;;;;30.78;73.36;100283.38;6193153;23;20026;-74
2022/11/19 10:38:06;;;;;;;0.00;0.00;;;;;;;30.36;73.56;100282.25;6192633;23;20088;-75
2022/11/19 10:40:38;;;;;;;0.00;0.00;;;;;;;29.82;70.51;100295.50;6191516;23;19997;-75
2022/11/19 10:43:46;;;;;;;0.00;0.00;;;;;;;30.01;75.56;100289.53;6189181;23;20390;-74
2022/11/19 10:46:26;;;;;;;0.00;0.00;;;;;;;29.33;74.74;100287.38;6141305;23;20084;-75
2022/11/19 10:49:00;;;;;;;0.00;0.00;;;;;;;29.25;73.08;100289.38;6192074;23;20000;-77
2022/11/19 10:51:34;;;;;;;;;;;;;;;29.48;74.90;100298.69;6193522;23;20004;-76
2022/11/19 10:54:06;;;;;;;0.00;0.00;;;;;;;29.52;72.03;100291.84;6220520;23;19987;-76
2022/11/19 10:56:38;;;;;;;0.00;0.00;;;;;;;29.62;70.83;100295.09;6193343;23;20079;-76
2022/11/19 11:02:20;;;;;;;0.00;0.00;;;;;;;30.70;73.10;100293.06;6197726;23;20048;-81
2022/11/19 11:05:23;;;;;;;0.00;0.00;;;;;;;30.64;65.65;100284.22;6192633;23;20004;-78
2022/11/19 11:08:02;;;;;;;0.00;0.00;;;;;;;29.75;66.43;100283.03;6159112;23;20213;-77
2022/11/19 11:10:59;;;;;;;0.43;0.40;;;;;;;29.64;69.37;100284.22;6196009;23;20039;-76
2022/11/19 11:16:44;;;;;;;0.00;0.00;;;;;;;30.80;70.97;100274.50;6218392;23;20085;-78
2022/11/19 11:19:17;;;;;;;0.00;0.00;;;;;;;30.23;74.98;100264.16;6193380;23;20027;-80
2022/11/19 11:21:43;;;;;;;0.00;0.00;;;;;;;30.95;75.50;100263.97;6196079;23;20008;-78
2022/11/19 11:24:12;;;;;;;0.00;0.00;;;;;;;30.66;72.51;100261.22;6218344;23;20019;-76
2022/11/19 11:26:39;;;;;;;0.00;0.00;;;;;;;29.66;67.79;100265.72;6192604;23;20001;-76
2022/11/19 11:29:27;;;;;;;0.00;0.00;;;;;;;28.37;77.04;100263.16;6195878;23;20215;-75
2022/11/19 11:31:55;;;;;;;0.00;0.00;;;;;;;28.06;76.51;100251.31;6181416;23;20005;-76
2022/11/19 11:34:29;;;;;;;0.00;0.00;;;;;;;28.77;77.63;100254.97;6221711;23;20015;-78
2022/11/19 11:36:55;;;;;;;0.00;0.00;;;;;;;29.07;76.75;100251.88;6194380;23;20116;-77
2022/11/19 11:39:28;;;;;;;0.00;0.00;;;;;;;29.12;70.64;100253.50;6224591;23;20005;-77
2022/11/19 11:42:02;;;;;;;0.00;0.00;;;;;;;28.62;75.92;100235.25;6220596;23;20027;-76
2022/11/19 11:44:28;;;;;;;;;;;;;;;28.71;73.41;100246.94;6197680;23;20000;-75
2022/11/19 11:47:11;;;;;;;0.00;0.00;;;;;;;28.24;76.75;100245.00;6221279;23;20501;-77
2022/11/19 11:49:56;;;;;;;0.00;0.00;;;;;;;28.55;79.05;100233.16;6220957;23;20024;-77
2022/11/19 11:52:27;;;;;;;;;;;;;;;29.53;76.14;100239.97;6195003;23;20090;-76
2022/11/19 11:55:04;;;;;;;0.00;0.00;;;;;;;30.27;75.98;100228.25;6193999;23;19903;-77
2022/11/19 11:57:33;;;;;;;0.00;0.00;;;;;;;30.22;72.41;100234.31;6220493;23;20055;-75
2022/11/19 12:00:00;;;;;;;0.00;0.00;;;;;;;30.79;75.97;100228.53;6192864;23;20004;-76
2022/11/19 12:02:31;;;;;;;0.00;0.00;;;;;;;31.32;75.45;100226.69;6221171;23;20076;-76
2022/11/19 12:05:19;;;;;;;0.00;0.00;;;;;;;32.15;73.28;100219.56;6194170;23;20030;-76
2022/11/19 12:08:25;;;;;;;0.00;0.00;;;;;;;33.65;72.52;100232.25;6221216;23;20035;-76
2022/11/19 12:11:21;;;;;;;0.00;0.00;;;;;;;33.69;70.51;100238.66;6148689;23;20399;-76
2022/11/19 12:14:11;;;;;;;0.00;0.00;;;;;;;33.98;72.20;100227.66;6194126;23;20107;-77
2022/11/19 12:16:49;;;;;;;0.00;0.00;;;;;;;34.38;71.47;100227.72;6170321;23;20005;-77
2022/11/19 12:19:30;;;;;;;0.00;0.00;;;;;;;34.51;73.31;100225.03;6219756;23;20458;-77
2022/11/19 12:22:27;;;;;;;0.00;0.00;;;;;;;34.42;70.69;100222.00;6193823;23;20035;-76
2022/11/19 12:25:33;;;;;;;0.00;0.00;;;;;;;35.59;73.43;100213.38;6221337;23;20367;-76
2022/11/19 12:28:40;;;;;;;0.00;0.00;;;;;;;37.78;68.74;100216.84;6193512;23;20447;-76
2022/11/19 12:31:13;;;;;;;0.00;0.00;;;;;;;38.31;67.15;100217.03;6220325;23;19988;-76
2022/11/19 12:33:48;;;;;;;;;;;;;;;39.02;67.86;100215.63;6221829;23;20079;-76
2022/11/19 12:36:13;;;;;;;;;;;;;;;38.50;68.79;100217.97;6195858;23;19919;-77
2022/11/19 12:38:48;;;;;;;0.00;0.00;;;;;;;39.14;69.29;100218.88;6196542;23;19907;-76
2022/11/19 12:41:41;;;;;;;0.00;0.00;;;;;;;39.77;68.64;100208.91;6193758;23;20008;-72
2022/11/19 12:44:35;;;;;;;0.00;0.00;;;;;;;40.10;68.64;100202.59;6193386;23;20000;-76
2022/11/19 12:47:15;;;;;;;0.00;0.00;;;;;;;40.39;68.88;100187.00;6194541;23;20021;-75
2022/11/19 12:50:00;;;;;;;0.00;0.00;;;;;;;40.96;70.20;100186.41;6220241;23;20012;-78
2022/11/19 12:52:44;;;;;;;0.00;0.00;;;;;;;40.70;71.06;100174.53;6192406;23;20031;-75
2022/11/19 12:55:34;;;;;;;0.00;0.00;;;;;;;40.80;71.63;100183.88;6192985;23;20001;-75
2022/11/19 12:58:22;;;;;;;0.00;0.00;;;;;;;41.03;72.32;100168.06;6192228;23;20015;-77
2022/11/19 13:00:58;;;;;;;0.00;0.00;;;;;;;41.55;71.77;100161.41;6193036;23;20036;-78
2022/11/19 13:03:34;;;;;;;0.00;0.00;;;;;;;41.27;71.30;100167.28;6190495;23;20012;-75